sensor_id;sensor_type;location;lat;lon;timestamp;temperature;humidity
32769;DHT22;23049;54.304;8.826;2023-04-15T00:00:54;7.10;99.90
32769;DHT22;23049;54.304;8.826;2023-04-15T00:03:19;7.10;99.90
32769;DHT22;23049;54.304;8.826;2023-04-15T00:05:45;7.10;99.90
32769;DHT22;23049;54.304;8.826;2023-04-15T00:08:10;7.10;99.90
32769;DHT22;23049;54.304;8.826;2023-04-15T00:10:37;7.00;99.90
32769;DHT22;23049;54.304;8.826;2023-04-15T00:13:02;7.00;99.90
32769;DHT22;23049;54.304;8.826;2023-04-15T00:15:28;7.00;99.90
32769;DHT22;23049;54.304;8.826;2023-04-15T00:17:54;7.00;99.90
32769;DHT22;23049;54.304;8.826;2023-04-15T00:20:20;7.10;99.90
32769;DHT22;23049;54.304;8.826;2023-04-15T00:22:45;7.10;99.90
32769;DHT22;23049;54.304;8.826;2023-04-15T00:25:11;7.10;99.90
32769;DHT22;23049;54.304;8.826;2023-04-15T00:27:37;7.10;99.90
32769;DHT22;23049;54.304;8.826;2023-04-15T00:30:03;7.10;99.90
32769;DHT22;23049;54.304;8.826;2023-04-15T00:32:28;7.10;99.90
32769;DHT22;23049;54.304;8.826;2023-04-15T00:34:54;7.10;99.90
32769;DHT22;23049;54.304;8.826;2023-04-15T00:37:20;7.10;99.90
32769;DHT22;23049;54.304;8.826;2023-04-15T00:39:46;7.10;99.90
32769;DHT22;23049;54.304;8.826;2023-04-15T00:42:12;7.20;99.90
32769;DHT22;23049;54.304;8.826;2023-04-15T00:44:37;7.20;99.90
32769;DHT22;23049;54.304;8.826;2023-04-15T00:47:03;7.30;99.90
32769;DHT22;23049;54.304;8.826;2023-04-15T00:49:29;7.40;99.90
32769;DHT22;23049;54.304;8.826;2023-04-15T00:51:55;7.40;99.90
32769;DHT22;23049;54.304;8.826;2023-04-15T00:54:20;7.40;99.90
32769;DHT22;23049;54.304;8.826;2023-04-15T00:56:46;7.50;99.90
32769;DHT22;23049;54.304;8.826;2023-04-15T00:59:12;7.50;99.90
32769;DHT22;23049;54.304;8.826;2023-04-15T01:01:38;7.50;99.90
32769;DHT22;23049;54.304;8.826;2023-04-15T01:04:03;7.60;99.90
32769;DHT22;23049;54.304;8.826;2023-04-15T01:06:30;7.60;99.90
32769;DHT22;23049;54.304;8.826;2023-04-15T01:08:56;7.60;99.90
32769;DHT22;23049;54.304;8.826;2023-04-15T01:11:22;7.60;99.90
32769;DHT22;23049;54.304;8.826;2023-04-15T01:13:48;7.70;99.90
32769;DHT22;23049;54.304;8.826;2023-04-15T01:16:14;7.60;99.90
32769;DHT22;23049;54.304;8.826;2023-04-15T01:18:40;7.70;99.90
32769;DHT22;23049;54.304;8.826;2023-04-15T01:21:06;7.70;99.90
32769;DHT22;23049;54.304;8.826;2023-04-15T01:23:32;7.70;99.90
32769;DHT22;23049;54.304;8.826;2023-04-15T01:25:58;7.70;99.90
32769;DHT22;23049;54.304;8.826;2023-04-15T01:28:24;7.70;99.90
32769;DHT22;23049;54.304;8.826;2023-04-15T01:30:49;7.70;99.90
32769;DHT22;23049;54.304;8.826;2023-04-15T01:33:15;7.80;99.90
32769;DHT22;23049;54.304;8.826;2023-04-15T01:35:41;7.70;99.90
32769;DHT22;23049;54.304;8.826;2023-04-15T01:38:09;7.70;99.90
32769;DHT22;23049;54.304;8.826;2023-04-15T01:40:35;7.70;99.90
32769;DHT22;23049;54.304;8.826;2023-04-15T01:43:01;7.70;99.90
32769;DHT22;23049;54.304;8.826;2023-04-15T01:45:28;7.70;99.90
32769;DHT22;23049;54.304;8.826;2023-04-15T01:47:54;7.70;99.90
32769;DHT22;23049;54.304;8.826;2023-04-15T01:50:19;7.80;99.90
32769;DHT22;23049;54.304;8.826;2023-04-15T01:52:46;7.80;99.90
32769;DHT22;23049;54.304;8.826;2023-04-15T01:55:11;7.80;99.90
32769;DHT22;23049;54.304;8.826;2023-04-15T01:57:37;7.80;99.90
32769;DHT22;23049;54.304;8.826;2023-04-15T02:00:03;7.80;99.90
32769;DHT22;23049;54.304;8.826;2023-04-15T02:02:29;7.80;99.90
32769;DHT22;23049;54.304;8.826;2023-04-15T02:04:55;7.80;99.90
32769;DHT22;23049;54.304;8.826;2023-04-15T02:07:20;7.80;99.90
32769;DHT22;23049;54.304;8.826;2023-04-15T02:09:46;7.80;99.90
32769;DHT22;23049;54.304;8.826;2023-04-15T02:12:11;7.80;99.90
32769;DHT22;23049;54.304;8.826;2023-04-15T02:14:37;7.80;99.90
32769;DHT22;23049;54.304;8.826;2023-04-15T02:17:03;7.90;99.90
32769;DHT22;23049;54.304;8.826;2023-04-15T02:19:35;7.90;99.90
32769;DHT22;23049;54.304;8.826;2023-04-15T02:22:01;7.90;99.90
32769;DHT22;23049;54.304;8.826;2023-04-15T02:24:27;7.90;99.90
32769;DHT22;23049;54.304;8.826;2023-04-15T02:26:53;7.90;99.90
32769;DHT22;23049;54.304;8.826;2023-04-15T02:29:18;7.90;99.90
32769;DHT22;23049;54.304;8.826;2023-04-15T02:31:44;7.90;99.90
32769;DHT22;23049;54.304;8.826;2023-04-15T02:34:10;7.90;99.90
32769;DHT22;23049;54.304;8.826;2023-04-15T02:36:35;7.90;99.90
32769;DHT22;23049;54.304;8.826;2023-04-15T02:39:01;7.90;99.90
32769;DHT22;23049;54.304;8.826;2023-04-15T02:41:27;7.90;99.90
32769;DHT22;23049;54.304;8.826;2023-04-15T02:43:54;7.90;99.90
32769;DHT22;23049;54.304;8.826;2023-04-15T02:46:20;8.00;99.90
32769;DHT22;23049;54.304;8.826;2023-04-15T02:48:47;8.00;99.90
32769;DHT22;23049;54.304;8.826;2023-04-15T02:51:13;8.00;99.90
32769;DHT22;23049;54.304;8.826;2023-04-15T02:53:39;8.00;99.90
32769;DHT22;23049;54.304;8.826;2023-04-15T02:56:05;8.00;99.90
32769;DHT22;23049;54.304;8.826;2023-04-15T02:58:31;8.00;99.90
32769;DHT22;23049;54.304;8.826;2023-04-15T03:00:59;8.00;99.90
32769;DHT22;23049;54.304;8.826;2023-04-15T03:03:24;8.00;99.90
32769;DHT22;23049;54.304;8.826;2023-04-15T03:05:52;8.00;99.90
32769;DHT22;23049;54.304;8.826;2023-04-15T03:08:17;8.00;99.90
32769;DHT22;23049;54.304;8.826;2023-04-15T03:10:43;8.00;99.90
32769;DHT22;23049;54.304;8.826;2023-04-15T03:13:08;8.00;99.90
32769;DHT22;23049;54.304;8.826;2023-04-15T03:15:34;8.00;99.90
32769;DHT22;23049;54.304;8.826;2023-04-15T03:18:00;8.10;99.90
32769;DHT22;23049;54.304;8.826;2023-04-15T03:20:25;8.10;99.90
32769;DHT22;23049;54.304;8.826;2023-04-15T03:22:51;8.10;99.90
32769;DHT22;23049;54.304;8.826;2023-04-15T03:25:17;8.10;99.90
32769;DHT22;23049;54.304;8.826;2023-04-15T03:27:42;8.10;99.90
32769;DHT22;23049;54.304;8.826;2023-04-15T03:30:08;8.10;99.90
32769;DHT22;23049;54.304;8.826;2023-04-15T03:32:33;8.10;99.90
32769;DHT22;23049;54.304;8.826;2023-04-15T03:34:59;8.10;99.90
32769;DHT22;23049;54.304;8.826;2023-04-15T03:37:25;8.10;99.90
32769;DHT22;23049;54.304;8.826;2023-04-15T03:39:50;8.10;99.90
32769;DHT22;23049;54.304;8.826;2023-04-15T03:42:16;8.10;99.90
32769;DHT22;23049;54.304;8.826;2023-04-15T03:44:41;8.20;99.90
32769;DHT22;23049;54.304;8.826;2023-04-15T03:47:07;8.20;99.90
32769;DHT22;23049;54.304;8.826;2023-04-15T03:49:32;8.20;99.90
32769;DHT22;23049;54.304;8.826;2023-04-15T03:51:58;8.20;99.90
32769;DHT22;23049;54.304;8.826;2023-04-15T03:54:24;8.20;99.90
32769;DHT22;23049;54.304;8.826;2023-04-15T03:56:49;8.20;99.90
32769;DHT22;23049;54.304;8.826;2023-04-15T03:59:15;8.20;99.90
32769;DHT22;23049;54.304;8.826;2023-04-15T04:01:40;8.20;99.90
32769;DHT22;23049;54.304;8.826;2023-04-15T04:04:06;8.20;99.90
32769;DHT22;23049;54.304;8.826;2023-04-15T04:06:32;8.20;99.90
32769;DHT22;23049;54.304;8.826;2023-04-15T04:08:57;8.20;99.90
32769;DHT22;23049;54.304;8.826;2023-04-15T04:11:23;8.20;99.90
32769;DHT22;23049;54.304;8.826;2023-04-15T04:13:48;8.20;99.90
32769;DHT22;23049;54.304;8.826;2023-04-15T04:16:14;8.20;99.90
32769;DHT22;23049;54.304;8.826;2023-04-15T04:18:39;8.20;99.90
32769;DHT22;23049;54.304;8.826;2023-04-15T04:21:05;8.20;99.90
32769;DHT22;23049;54.304;8.826;2023-04-15T04:23:31;8.20;99.90
32769;DHT22;23049;54.304;8.826;2023-04-15T04:25:57;8.30;99.90
32769;DHT22;23049;54.304;8.826;2023-04-15T04:28:22;8.30;99.90
32769;DHT22;23049;54.304;8.826;2023-04-15T04:30:48;8.20;99.90
32769;DHT22;23049;54.304;8.826;2023-04-15T04:33:13;8.30;99.90
32769;DHT22;23049;54.304;8.826;2023-04-15T04:35:39;8.30;99.90
32769;DHT22;23049;54.304;8.826;2023-04-15T04:38:04;8.30;99.90
32769;DHT22;23049;54.304;8.826;2023-04-15T04:40:30;8.30;99.90
32769;DHT22;23049;54.304;8.826;2023-04-15T04:42:55;8.30;99.90
32769;DHT22;23049;54.304;8.826;2023-04-15T04:45:21;8.30;99.90
32769;DHT22;23049;54.304;8.826;2023-04-15T04:47:46;8.30;99.90
32769;DHT22;23049;54.304;8.826;2023-04-15T04:50:12;8.30;99.90
32769;DHT22;23049;54.304;8.826;2023-04-15T04:52:38;8.30;99.90
32769;DHT22;23049;54.304;8.826;2023-04-15T04:55:03;8.30;99.90
32769;DHT22;23049;54.304;8.826;2023-04-15T04:57:29;8.30;99.90
32769;DHT22;23049;54.304;8.826;2023-04-15T04:59:55;8.40;99.90
32769;DHT22;23049;54.304;8.826;2023-04-15T05:02:20;8.40;99.90
32769;DHT22;23049;54.304;8.826;2023-04-15T05:04:46;8.40;99.90
32769;DHT22;23049;54.304;8.826;2023-04-15T05:07:12;8.40;99.90
32769;DHT22;23049;54.304;8.826;2023-04-15T05:09:37;8.40;99.90
32769;DHT22;23049;54.304;8.826;2023-04-15T05:12:03;8.40;99.90
32769;DHT22;23049;54.304;8.826;2023-04-15T05:14:29;8.40;99.90
32769;DHT22;23049;54.304;8.826;2023-04-15T05:16:55;8.40;99.90
32769;DHT22;23049;54.304;8.826;2023-04-15T05:19:21;8.50;99.90
32769;DHT22;23049;54.304;8.826;2023-04-15T05:21:46;8.50;99.90
32769;DHT22;23049;54.304;8.826;2023-04-15T05:24:12;8.50;99.90
32769;DHT22;23049;54.304;8.826;2023-04-15T05:26:37;8.50;99.90
32769;DHT22;23049;54.304;8.826;2023-04-15T05:29:03;8.50;99.90
32769;DHT22;23049;54.304;8.826;2023-04-15T05:31:28;8.50;99.90
32769;DHT22;23049;54.304;8.826;2023-04-15T05:33:54;8.50;99.90
32769;DHT22;23049;54.304;8.826;2023-04-15T05:36:19;8.50;99.90
32769;DHT22;23049;54.304;8.826;2023-04-15T05:38:45;8.60;99.90
32769;DHT22;23049;54.304;8.826;2023-04-15T05:41:10;8.60;99.90
32769;DHT22;23049;54.304;8.826;2023-04-15T05:43:36;8.60;99.90
32769;DHT22;23049;54.304;8.826;2023-04-15T05:46:01;8.60;99.90
32769;DHT22;23049;54.304;8.826;2023-04-15T05:48:27;8.60;99.90
32769;DHT22;23049;54.304;8.826;2023-04-15T05:50:52;8.60;99.90
32769;DHT22;23049;54.304;8.826;2023-04-15T05:53:18;8.60;99.90
32769;DHT22;23049;54.304;8.826;2023-04-15T05:55:44;8.60;99.90
32769;DHT22;23049;54.304;8.826;2023-04-15T05:58:10;8.60;99.90
32769;DHT22;23049;54.304;8.826;2023-04-15T06:00:36;8.60;99.90
32769;DHT22;23049;54.304;8.826;2023-04-15T06:03:02;8.70;99.90
32769;DHT22;23049;54.304;8.826;2023-04-15T06:05:28;8.70;99.90
32769;DHT22;23049;54.304;8.826;2023-04-15T06:07:54;8.60;99.90
32769;DHT22;23049;54.304;8.826;2023-04-15T06:10:19;8.70;99.90
32769;DHT22;23049;54.304;8.826;2023-04-15T06:12:45;8.70;99.90
32769;DHT22;23049;54.304;8.826;2023-04-15T06:15:11;8.70;99.90
32769;DHT22;23049;54.304;8.826;2023-04-15T06:17:37;8.70;99.90
32769;DHT22;23049;54.304;8.826;2023-04-15T06:20:02;8.70;99.90
32769;DHT22;23049;54.304;8.826;2023-04-15T06:22:28;8.70;99.90
32769;DHT22;23049;54.304;8.826;2023-04-15T06:24:53;8.70;99.90
32769;DHT22;23049;54.304;8.826;2023-04-15T06:27:19;8.80;99.90
32769;DHT22;23049;54.304;8.826;2023-04-15T06:29:45;8.70;99.90
32769;DHT22;23049;54.304;8.826;2023-04-15T06:32:10;8.80;99.90
32769;DHT22;23049;54.304;8.826;2023-04-15T06:34:36;8.80;99.90
32769;DHT22;23049;54.304;8.826;2023-04-15T06:37:02;8.80;99.90
32769;DHT22;23049;54.304;8.826;2023-04-15T06:39:27;8.80;99.90
32769;DHT22;23049;54.304;8.826;2023-04-15T06:41:53;8.80;99.90
32769;DHT22;23049;54.304;8.826;2023-04-15T06:44:18;8.80;99.90
32769;DHT22;23049;54.304;8.826;2023-04-15T06:46:45;8.80;99.90
32769;DHT22;23049;54.304;8.826;2023-04-15T06:49:10;8.80;99.90
32769;DHT22;23049;54.304;8.826;2023-04-15T06:51:36;8.80;99.90
32769;DHT22;23049;54.304;8.826;2023-04-15T06:54:02;8.90;99.90
32769;DHT22;23049;54.304;8.826;2023-04-15T06:56:30;8.90;99.90
32769;DHT22;23049;54.304;8.826;2023-04-15T06:58:56;9.00;99.90
32769;DHT22;23049;54.304;8.826;2023-04-15T07:01:22;8.90;99.90
32769;DHT22;23049;54.304;8.826;2023-04-15T07:03:47;8.90;99.90
32769;DHT22;23049;54.304;8.826;2023-04-15T07:06:13;8.90;99.90
32769;DHT22;23049;54.304;8.826;2023-04-15T07:08:38;9.00;99.90
32769;DHT22;23049;54.304;8.826;2023-04-15T07:11:04;9.00;99.90
32769;DHT22;23049;54.304;8.826;2023-04-15T07:13:30;9.10;99.90
32769;DHT22;23049;54.304;8.826;2023-04-15T07:15:56;9.10;99.90
32769;DHT22;23049;54.304;8.826;2023-04-15T07:18:22;9.20;99.90
32769;DHT22;23049;54.304;8.826;2023-04-15T07:20:48;9.10;99.90
32769;DHT22;23049;54.304;8.826;2023-04-15T07:23:15;9.10;99.90
32769;DHT22;23049;54.304;8.826;2023-04-15T07:25:40;9.10;99.90
32769;DHT22;23049;54.304;8.826;2023-04-15T07:28:06;9.10;99.90
32769;DHT22;23049;54.304;8.826;2023-04-15T07:30:31;9.10;99.90
32769;DHT22;23049;54.304;8.826;2023-04-15T07:32:57;9.10;99.90
32769;DHT22;23049;54.304;8.826;2023-04-15T07:35:23;9.20;99.90
32769;DHT22;23049;54.304;8.826;2023-04-15T07:37:49;9.20;99.90
32769;DHT22;23049;54.304;8.826;2023-04-15T07:40:15;9.20;99.90
32769;DHT22;23049;54.304;8.826;2023-04-15T07:42:41;9.30;99.90
32769;DHT22;23049;54.304;8.826;2023-04-15T07:45:06;9.30;99.90
32769;DHT22;23049;54.304;8.826;2023-04-15T07:47:32;9.30;99.90
32769;DHT22;23049;54.304;8.826;2023-04-15T07:49:58;9.40;99.90
32769;DHT22;23049;54.304;8.826;2023-04-15T07:52:24;9.40;99.90
32769;DHT22;23049;54.304;8.826;2023-04-15T07:54:50;9.50;99.90
32769;DHT22;23049;54.304;8.826;2023-04-15T07:57:15;9.60;99.90
32769;DHT22;23049;54.304;8.826;2023-04-15T07:59:41;9.70;99.90
32769;DHT22;23049;54.304;8.826;2023-04-15T08:02:07;9.60;99.90
32769;DHT22;23049;54.304;8.826;2023-04-15T08:04:32;9.60;99.90
32769;DHT22;23049;54.304;8.826;2023-04-15T08:06:58;9.80;99.90
32769;DHT22;23049;54.304;8.826;2023-04-15T08:09:24;9.80;99.90
32769;DHT22;23049;54.304;8.826;2023-04-15T08:11:49;9.80;99.90
32769;DHT22;23049;54.304;8.826;2023-04-15T08:14:15;9.80;99.90
32769;DHT22;23049;54.304;8.826;2023-04-15T08:16:41;9.70;99.90
32769;DHT22;23049;54.304;8.826;2023-04-15T08:19:06;9.70;99.90
32769;DHT22;23049;54.304;8.826;2023-04-15T08:21:32;9.80;99.90
32769;DHT22;23049;54.304;8.826;2023-04-15T08:23:58;9.90;99.90
32769;DHT22;23049;54.304;8.826;2023-04-15T08:26:24;9.80;99.90
32769;DHT22;23049;54.304;8.826;2023-04-15T08:28:50;9.70;99.90
32769;DHT22;23049;54.304;8.826;2023-04-15T08:31:16;9.70;99.90
32769;DHT22;23049;54.304;8.826;2023-04-15T08:33:42;9.70;99.90
32769;DHT22;23049;54.304;8.826;2023-04-15T08:36:07;9.80;99.90
32769;DHT22;23049;54.304;8.826;2023-04-15T08:38:33;9.70;99.90
32769;DHT22;23049;54.304;8.826;2023-04-15T08:40:59;9.70;99.90
32769;DHT22;23049;54.304;8.826;2023-04-15T08:43:28;9.70;99.90
32769;DHT22;23049;54.304;8.826;2023-04-15T08:45:57;9.70;99.90
32769;DHT22;23049;54.304;8.826;2023-04-15T08:48:29;9.80;99.90
32769;DHT22;23049;54.304;8.826;2023-04-15T08:50:56;9.80;99.90
32769;DHT22;23049;54.304;8.826;2023-04-15T08:53:23;9.80;99.90
32769;DHT22;23049;54.304;8.826;2023-04-15T08:55:50;9.90;99.90
32769;DHT22;23049;54.304;8.826;2023-04-15T08:58:16;9.90;99.90
32769;DHT22;23049;54.304;8.826;2023-04-15T09:00:42;9.90;99.90
32769;DHT22;23049;54.304;8.826;2023-04-15T09:03:08;9.90;99.90
32769;DHT22;23049;54.304;8.826;2023-04-15T09:05:36;9.90;99.90
32769;DHT22;23049;54.304;8.826;2023-04-15T09:08:03;9.90;99.90
32769;DHT22;23049;54.304;8.826;2023-04-15T09:10:28;9.90;99.90
32769;DHT22;23049;54.304;8.826;2023-04-15T09:12:55;10.00;99.90
32769;DHT22;23049;54.304;8.826;2023-04-15T09:15:23;10.00;99.90
32769;DHT22;23049;54.304;8.826;2023-04-15T09:17:49;10.10;99.90
32769;DHT22;23049;54.304;8.826;2023-04-15T09:20:15;10.00;99.90
32769;DHT22;23049;54.304;8.826;2023-04-15T09:22:43;10.00;99.90
32769;DHT22;23049;54.304;8.826;2023-04-15T09:27:47;10.10;99.90
32769;DHT22;23049;54.304;8.826;2023-04-15T09:30:13;10.10;99.90
32769;DHT22;23049;54.304;8.826;2023-04-15T09:32:47;10.10;99.90
32769;DHT22;23049;54.304;8.826;2023-04-15T09:35:13;10.10;99.90
32769;DHT22;23049;54.304;8.826;2023-04-15T09:37:38;10.10;99.90
32769;DHT22;23049;54.304;8.826;2023-04-15T09:40:04;10.10;99.90
32769;DHT22;23049;54.304;8.826;2023-04-15T09:42:30;10.20;99.90
32769;DHT22;23049;54.304;8.826;2023-04-15T09:45:06;10.20;99.90
32769;DHT22;23049;54.304;8.826;2023-04-15T09:47:32;10.20;99.90
32769;DHT22;23049;54.304;8.826;2023-04-15T09:49:58;10.30;99.90
32769;DHT22;23049;54.304;8.826;2023-04-15T09:52:23;10.30;99.90
32769;DHT22;23049;54.304;8.826;2023-04-15T09:54:50;10.30;99.90
32769;DHT22;23049;54.304;8.826;2023-04-15T09:57:17;10.30;99.90
32769;DHT22;23049;54.304;8.826;2023-04-15T09:59:42;10.50;99.90
32769;DHT22;23049;54.304;8.826;2023-04-15T10:02:08;10.30;99.90
32769;DHT22;23049;54.304;8.826;2023-04-15T10:04:39;10.40;99.90
32769;DHT22;23049;54.304;8.826;2023-04-15T10:07:06;10.40;99.90
32769;DHT22;23049;54.304;8.826;2023-04-15T10:09:32;10.40;99.90
32769;DHT22;23049;54.304;8.826;2023-04-15T10:12:00;10.40;99.90
32769;DHT22;23049;54.304;8.826;2023-04-15T10:14:26;10.40;99.90
32769;DHT22;23049;54.304;8.826;2023-04-15T10:16:52;10.50;99.90
32769;DHT22;23049;54.304;8.826;2023-04-15T10:19:20;10.60;99.90
32769;DHT22;23049;54.304;8.826;2023-04-15T10:21:49;10.60;99.90
32769;DHT22;23049;54.304;8.826;2023-04-15T10:24:14;10.60;99.90
32769;DHT22;23049;54.304;8.826;2023-04-15T10:26:40;10.60;99.90
32769;DHT22;23049;54.304;8.826;2023-04-15T10:29:06;10.60;99.90
32769;DHT22;23049;54.304;8.826;2023-04-15T10:31:33;10.70;99.90
32769;DHT22;23049;54.304;8.826;2023-04-15T10:34:00;10.70;99.90
32769;DHT22;23049;54.304;8.826;2023-04-15T10:36:31;10.70;99.90
32769;DHT22;23049;54.304;8.826;2023-04-15T10:38:56;10.70;99.90
32769;DHT22;23049;54.304;8.826;2023-04-15T10:41:23;10.70;99.90
32769;DHT22;23049;54.304;8.826;2023-04-15T10:43:49;10.60;99.90
32769;DHT22;23049;54.304;8.826;2023-04-15T10:46:17;10.60;99.90
32769;DHT22;23049;54.304;8.826;2023-04-15T10:48:46;10.60;99.90
32769;DHT22;23049;54.304;8.826;2023-04-15T10:51:12;10.70;99.90
32769;DHT22;23049;54.304;8.826;2023-04-15T10:53:38;10.70;99.90
32769;DHT22;23049;54.304;8.826;2023-04-15T10:56:06;10.70;99.90
32769;DHT22;23049;54.304;8.826;2023-04-15T10:58:41;10.80;99.90
32769;DHT22;23049;54.304;8.826;2023-04-15T11:01:07;10.80;99.90
32769;DHT22;23049;54.304;8.826;2023-04-15T11:03:37;10.80;99.90
32769;DHT22;23049;54.304;8.826;2023-04-15T11:06:03;10.80;99.90
32769;DHT22;23049;54.304;8.826;2023-04-15T11:11:13;11.10;99.90
32769;DHT22;23049;54.304;8.826;2023-04-15T11:13:46;11.10;99.90
32769;DHT22;23049;54.304;8.826;2023-04-15T11:16:12;11.20;99.90
32769;DHT22;23049;54.304;8.826;2023-04-15T11:18:38;11.30;99.90
32769;DHT22;23049;54.304;8.826;2023-04-15T11:21:04;11.50;99.90
32769;DHT22;23049;54.304;8.826;2023-04-15T11:23:40;11.60;99.90
32769;DHT22;23049;54.304;8.826;2023-04-15T11:26:08;11.70;99.90
32769;DHT22;23049;54.304;8.826;2023-04-15T11:28:36;11.50;99.90
32769;DHT22;23049;54.304;8.826;2023-04-15T11:31:06;11.70;99.90
32769;DHT22;23049;54.304;8.826;2023-04-15T11:33:32;11.60;99.90
32769;DHT22;23049;54.304;8.826;2023-04-15T11:35:58;11.70;99.90
32769;DHT22;23049;54.304;8.826;2023-04-15T11:38:23;11.60;99.90
32769;DHT22;23049;54.304;8.826;2023-04-15T11:40:49;11.70;99.90
32769;DHT22;23049;54.304;8.826;2023-04-15T11:43:17;11.90;99.90
32769;DHT22;23049;54.304;8.826;2023-04-15T11:45:49;11.90;99.90
32769;DHT22;23049;54.304;8.826;2023-04-15T11:48:15;12.00;99.90
32769;DHT22;23049;54.304;8.826;2023-04-15T11:50:41;11.90;99.90
32769;DHT22;23049;54.304;8.826;2023-04-15T11:53:07;12.20;99.90
32769;DHT22;23049;54.304;8.826;2023-04-15T11:55:43;12.10;99.90
32769;DHT22;23049;54.304;8.826;2023-04-15T11:58:22;12.00;99.90
32769;DHT22;23049;54.304;8.826;2023-04-15T12:00:52;12.00;99.90
32769;DHT22;23049;54.304;8.826;2023-04-15T12:03:28;12.20;99.90
32769;DHT22;23049;54.304;8.826;2023-04-15T12:08:54;12.50;99.90
32769;DHT22;23049;54.304;8.826;2023-04-15T12:11:25;12.50;99.90
32769;DHT22;23049;54.304;8.826;2023-04-15T12:14:01;12.70;99.90
32769;DHT22;23049;54.304;8.826;2023-04-15T12:16:28;12.70;99.90
32769;DHT22;23049;54.304;8.826;2023-04-15T12:18:55;13.00;99.90
32769;DHT22;23049;54.304;8.826;2023-04-15T12:21:21;13.10;99.90
32769;DHT22;23049;54.304;8.826;2023-04-15T12:23:48;13.20;99.90
32769;DHT22;23049;54.304;8.826;2023-04-15T12:26:16;12.90;99.90
32769;DHT22;23049;54.304;8.826;2023-04-15T12:28:42;12.80;99.90
32769;DHT22;23049;54.304;8.826;2023-04-15T12:31:08;13.00;99.90
32769;DHT22;23049;54.304;8.826;2023-04-15T12:33:34;13.10;99.90
32769;DHT22;23049;54.304;8.826;2023-04-15T12:35:59;13.40;99.90
32769;DHT22;23049;54.304;8.826;2023-04-15T12:38:25;13.30;99.90
32769;DHT22;23049;54.304;8.826;2023-04-15T12:40:50;13.40;99.90
32769;DHT22;23049;54.304;8.826;2023-04-15T12:43:16;13.30;99.90
32769;DHT22;23049;54.304;8.826;2023-04-15T12:45:41;13.40;99.90
32769;DHT22;23049;54.304;8.826;2023-04-15T12:48:07;13.50;99.90
32769;DHT22;23049;54.304;8.826;2023-04-15T12:50:34;13.60;99.90
32769;DHT22;23049;54.304;8.826;2023-04-15T12:52:59;13.40;99.90
32769;DHT22;23049;54.304;8.826;2023-04-15T12:55:25;13.40;99.90
32769;DHT22;23049;54.304;8.826;2023-04-15T12:57:50;13.70;99.90
32769;DHT22;23049;54.304;8.826;2023-04-15T13:00:16;13.50;99.90
32769;DHT22;23049;54.304;8.826;2023-04-15T13:02:42;13.40;99.90
32769;DHT22;23049;54.304;8.826;2023-04-15T13:05:08;13.80;99.90
32769;DHT22;23049;54.304;8.826;2023-04-15T13:07:33;13.90;99.90
32769;DHT22;23049;54.304;8.826;2023-04-15T13:09:59;14.00;99.90
32769;DHT22;23049;54.304;8.826;2023-04-15T13:12:25;13.70;99.90
32769;DHT22;23049;54.304;8.826;2023-04-15T13:14:51;13.50;99.90
32769;DHT22;23049;54.304;8.826;2023-04-15T13:17:17;13.90;99.90
32769;DHT22;23049;54.304;8.826;2023-04-15T13:19:44;13.80;99.90
32769;DHT22;23049;54.304;8.826;2023-04-15T13:22:10;13.90;99.90
32769;DHT22;23049;54.304;8.826;2023-04-15T13:24:36;13.90;99.90
32769;DHT22;23049;54.304;8.826;2023-04-15T13:27:03;13.90;99.90
32769;DHT22;23049;54.304;8.826;2023-04-15T13:29:29;13.70;99.90
32769;DHT22;23049;54.304;8.826;2023-04-15T13:31:54;13.60;99.90
32769;DHT22;23049;54.304;8.826;2023-04-15T13:34:20;13.70;99.90
32769;DHT22;23049;54.304;8.826;2023-04-15T13:36:45;13.90;99.90
32769;DHT22;23049;54.304;8.826;2023-04-15T13:39:11;14.30;99.90
32769;DHT22;23049;54.304;8.826;2023-04-15T13:41:37;14.50;99.90
32769;DHT22;23049;54.304;8.826;2023-04-15T13:44:02;14.10;99.90
32769;DHT22;23049;54.304;8.826;2023-04-15T13:46:29;14.10;99.90
32769;DHT22;23049;54.304;8.826;2023-04-15T13:48:55;14.10;99.90
32769;DHT22;23049;54.304;8.826;2023-04-15T13:51:20;14.00;99.90
32769;DHT22;23049;54.304;8.826;2023-04-15T13:53:46;13.90;99.90
32769;DHT22;23049;54.304;8.826;2023-04-15T13:56:11;14.00;99.90
32769;DHT22;23049;54.304;8.826;2023-04-15T13:58:37;14.10;99.90
32769;DHT22;23049;54.304;8.826;2023-04-15T14:01:02;14.20;99.90
32769;DHT22;23049;54.304;8.826;2023-04-15T14:03:28;14.40;99.90
32769;DHT22;23049;54.304;8.826;2023-04-15T14:05:53;14.60;99.90
32769;DHT22;23049;54.304;8.826;2023-04-15T14:08:21;14.70;99.90
32769;DHT22;23049;54.304;8.826;2023-04-15T14:10:47;14.40;99.90
32769;DHT22;23049;54.304;8.826;2023-04-15T14:13:15;14.10;99.90
32769;DHT22;23049;54.304;8.826;2023-04-15T14:15:40;13.80;99.90
32769;DHT22;23049;54.304;8.826;2023-04-15T14:18:06;13.80;99.90
32769;DHT22;23049;54.304;8.826;2023-04-15T14:20:32;13.80;99.90
32769;DHT22;23049;54.304;8.826;2023-04-15T14:22:58;13.80;99.90
32769;DHT22;23049;54.304;8.826;2023-04-15T14:25:23;13.80;99.90
32769;DHT22;23049;54.304;8.826;2023-04-15T14:27:49;13.80;99.90
32769;DHT22;23049;54.304;8.826;2023-04-15T14:30:14;14.20;99.90
32769;DHT22;23049;54.304;8.826;2023-04-15T14:32:40;14.40;99.90
32769;DHT22;23049;54.304;8.826;2023-04-15T14:37:20;13.90;99.90
32769;DHT22;23049;54.304;8.826;2023-04-15T14:39:46;13.80;99.90
32769;DHT22;23049;54.304;8.826;2023-04-15T14:42:11;13.70;99.90
32769;DHT22;23049;54.304;8.826;2023-04-15T14:44:37;13.60;99.90
32769;DHT22;23049;54.304;8.826;2023-04-15T14:47:02;13.50;99.90
32769;DHT22;23049;54.304;8.826;2023-04-15T14:49:28;13.90;99.90
32769;DHT22;23049;54.304;8.826;2023-04-15T14:51:54;14.20;99.90
32769;DHT22;23049;54.304;8.826;2023-04-15T14:54:20;14.50;99.90
32769;DHT22;23049;54.304;8.826;2023-04-15T14:56:45;14.80;99.90
32769;DHT22;23049;54.304;8.826;2023-04-15T14:59:11;14.40;99.90
32769;DHT22;23049;54.304;8.826;2023-04-15T15:01:36;14.20;99.90
32769;DHT22;23049;54.304;8.826;2023-04-15T15:04:02;14.00;99.90
32769;DHT22;23049;54.304;8.826;2023-04-15T15:06:28;13.70;99.90
32769;DHT22;23049;54.304;8.826;2023-04-15T15:08:53;13.60;99.90
32769;DHT22;23049;54.304;8.826;2023-04-15T15:11:19;13.60;99.90
32769;DHT22;23049;54.304;8.826;2023-04-15T15:13:45;13.60;99.90
32769;DHT22;23049;54.304;8.826;2023-04-15T15:16:10;13.60;99.90
32769;DHT22;23049;54.304;8.826;2023-04-15T15:18:36;13.60;99.90
32769;DHT22;23049;54.304;8.826;2023-04-15T15:21:01;13.50;99.90
32769;DHT22;23049;54.304;8.826;2023-04-15T15:23:27;13.60;99.90
32769;DHT22;23049;54.304;8.826;2023-04-15T15:25:52;13.90;99.90
32769;DHT22;23049;54.304;8.826;2023-04-15T15:28:18;13.90;99.90
32769;DHT22;23049;54.304;8.826;2023-04-15T15:30:43;14.00;99.90
32769;DHT22;23049;54.304;8.826;2023-04-15T15:33:09;14.20;99.90
32769;DHT22;23049;54.304;8.826;2023-04-15T15:35:35;14.30;99.90
32769;DHT22;23049;54.304;8.826;2023-04-15T15:38:00;14.20;99.90
32769;DHT22;23049;54.304;8.826;2023-04-15T15:40:26;14.10;99.90
32769;DHT22;23049;54.304;8.826;2023-04-15T15:42:51;14.20;99.90